Time;durP1;ratioP1;P1;durP2;ratioP2;P2;SDS_P1;SDS_P2;PMS_P1;PMS_P2;Temp;Humidity;BMP_temperature;BMP_pressure;BME280_temperature;BME280_humidity;BME280_pressure;Samples;Min_cycle;Max_cycle;Signal;HPM_P1;HPM_P2
2022/10/08 00:02:17;;;;;;;18.23;12.40;;;;;;;;;;5109250;28;20419;-70
2022/10/08 00:04:45;;;;;;;22.27;12.03;;;;;;;;;;5109264;28;20903;-70
2022/10/08 00:07:11;;;;;;;18.60;11.70;;;;;;;;;;5110554;28;20438;-70
2022/10/08 00:09:38;;;;;;;15.63;10.60;;;;;;;;;;5080901;28;20961;-70
2022/10/08 00:12:05;;;;;;;22.53;11.07;;;;;;;;;;5102795;27;20439;-70
2022/10/08 00:14:31;;;;;;;18.77;10.80;;;;;;;;;;5089830;28;20208;-70
2022/10/08 00:16:58;;;;;;;20.63;10.63;;;;;;;;;;5089538;28;20531;-70
2022/10/08 00:19:25;;;;;;;22.53;11.80;;;;;;;;;;5090197;28;20478;-70
2022/10/08 00:21:55;;;;;;;18.33;10.60;;;;;;;;;;5089417;28;20189;-70
2022/10/08 00:24:22;;;;;;;17.70;10.80;;;;;;;;;;5089177;28;20469;-70
2022/10/08 00:26:49;;;;;;;16.97;10.33;;;;;;;;;;5074849;28;20442;-70
2022/10/08 00:29:19;;;;;;;16.90;10.63;;;;;;;;;;5099836;28;20451;-70
2022/10/08 00:31:47;;;;;;;17.27;10.17;;;;;;;;;;5099993;28;20454;-70
2022/10/08 00:34:15;;;;;;;16.27;10.03;;;;;;;;;;5108534;27;20483;-70
2022/10/08 00:36:42;;;;;;;15.47;9.63;;;;;;;;;;5084537;28;20528;-72
2022/10/08 00:39:13;;;;;;;13.87;10.20;;;;;;;;;;5108706;28;20454;-70
2022/10/08 00:41:39;;;;;;;15.97;10.00;;;;;;;;;;5091890;28;20454;-70
2022/10/08 00:44:25;;;;;;;15.10;9.53;;;;;;;;;;5088977;28;20849;-71
2022/10/08 00:46:52;;;;;;;16.93;9.03;;;;;;;;;;5107402;28;20491;-70
2022/10/08 00:49:19;;;;;;;14.47;9.40;;;;;;;;;;5090725;28;20450;-70
2022/10/08 00:51:48;;;;;;;12.83;9.17;;;;;;;;;;5090457;28;20950;-70
2022/10/08 00:54:18;;;;;;;19.57;10.17;;;;;;;;;;5107925;28;20805;-70
2022/10/08 00:56:50;;;;;;;13.63;8.80;;;;;;;;;;5073274;28;20476;-70
2022/10/08 00:59:16;;;;;;;14.60;8.80;;;;;;;;;;5100290;28;20500;-70
2022/10/08 01:01:43;;;;;;;18.10;9.07;;;;;;;;;;5104368;28;20455;-70
2022/10/08 01:04:10;;;;;;;13.80;9.70;;;;;;;;;;5090508;28;20454;-70
2022/10/08 01:07:03;;;;;;;13.40;8.90;;;;;;;;;;5092207;28;20445;-70
2022/10/08 01:09:30;;;;;;;14.03;8.63;;;;;;;;;;5089346;28;20813;-70
2022/10/08 01:12:00;;;;;;;15.83;9.23;;;;;;;;;;5107239;28;20453;-70
2022/10/08 01:14:30;;;;;;;14.93;8.47;;;;;;;;;;5105427;28;20446;-69
2022/10/08 01:17:15;;;;;;;16.60;8.10;;;;;;;;;;5107260;28;21062;-70
2022/10/08 01:20:03;;;;;;;13.67;8.40;;;;;;;;;;5107602;28;20450;-70
2022/10/08 01:22:34;;;;;;;13.30;8.80;;;;;;;;;;5107714;28;20851;-70
2022/10/08 01:28:31;;;;;;;14.13;8.80;;;;;;;;;;5108388;28;21000;-71
2022/10/08 01:30:59;;;;;;;14.13;7.90;;;;;;;;;;5107777;28;20446;-70
2022/10/08 01:33:35;;;;;;;14.60;8.60;;;;;;;;;;5088500;28;21855;-70
2022/10/08 01:36:04;;;;;;;12.07;8.23;;;;;;;;;;5070904;28;20494;-70
2022/10/08 01:38:32;;;;;;;13.30;8.10;;;;;;;;;;5090264;28;20816;-70
2022/10/08 01:40:59;;;;;;;13.60;7.43;;;;;;;;;;5089084;28;20449;-70
2022/10/08 01:43:27;;;;;;;12.13;8.10;;;;;;;;;;5089831;28;20461;-70
2022/10/08 01:45:55;;;;;;;11.30;7.30;;;;;;;;;;5109074;27;20937;-70
2022/10/08 01:48:24;;;;;;;14.97;8.13;;;;;;;;;;5088270;28;20449;-70
2022/10/08 01:51:12;;;;;;;15.00;8.70;;;;;;;;;;5094407;28;20450;-69
2022/10/08 01:53:39;;;;;;;10.33;6.53;;;;;;;;;;5071950;28;20490;-70
2022/10/08 01:56:07;;;;;;;13.27;7.77;;;;;;;;;;5093549;28;20462;-70
2022/10/08 01:58:47;;;;;;;10.90;7.53;;;;;;;;;;5093878;28;20442;-70
2022/10/08 02:01:26;;;;;;;13.00;7.93;;;;;;;;;;5095284;28;20425;-70
2022/10/08 02:06:40;;;;;;;15.13;8.30;;;;;;;;;;5112806;28;20439;-70
2022/10/08 02:09:06;;;;;;;11.83;7.63;;;;;;;;;;5093428;28;20207;-70
2022/10/08 02:11:34;;;;;;;12.77;8.60;;;;;;;;;;5094116;28;20481;-70
2022/10/08 02:14:24;;;;;;;12.17;8.10;;;;;;;;;;5080072;28;20437;-70
2022/10/08 02:16:53;;;;;;;12.03;7.97;;;;;;;;;;5095044;28;20531;-70
2022/10/08 02:19:55;;;;;;;13.40;8.27;;;;;;;;;;5093744;28;20442;-70
2022/10/08 02:22:24;;;;;;;13.43;8.00;;;;;;;;;;5094047;28;20423;-70
2022/10/08 02:24:52;;;;;;;11.77;8.50;;;;;;;;;;5093662;28;20993;-70
2022/10/08 02:27:21;;;;;;;14.83;8.50;;;;;;;;;;5111478;28;20454;-69
2022/10/08 02:29:52;;;;;;;11.87;8.03;;;;;;;;;;5093360;28;20491;-69
2022/10/08 02:32:21;;;;;;;12.40;8.10;;;;;;;;;;5093419;28;20458;-70
2022/10/08 02:35:00;;;;;;;15.33;8.70;;;;;;;;;;5092896;28;20465;-70
2022/10/08 02:37:56;;;;;;;10.27;7.30;;;;;;;;;;5088000;28;20507;-70
2022/10/08 02:40:23;;;;;;;11.53;7.47;;;;;;;;;;5110928;28;20518;-70
2022/10/08 02:43:10;;;;;;;12.70;6.77;;;;;;;;;;5095505;28;20797;-70
2022/10/08 02:45:41;;;;;;;13.00;6.90;;;;;;;;;;5110917;28;20458;-70
2022/10/08 02:48:10;;;;;;;12.53;6.50;;;;;;;;;;5078976;28;20454;-70
2022/10/08 02:50:38;;;;;;;10.10;6.93;;;;;;;;;;5096997;28;20511;-70
2022/10/08 02:53:05;;;;;;;11.20;6.77;;;;;;;;;;5083655;28;20570;-70
2022/10/08 02:55:37;;;;;;;13.63;7.80;;;;;;;;;;5079528;28;20451;-70
2022/10/08 02:58:06;;;;;;;10.83;7.20;;;;;;;;;;5107868;28;21231;-70
2022/10/08 03:00:52;;;;;;;12.93;7.07;;;;;;;;;;5105064;28;20904;-70
2022/10/08 03:03:26;;;;;;;12.30;7.53;;;;;;;;;;5092688;28;20431;-70
2022/10/08 03:05:52;;;;;;;11.17;6.90;;;;;;;;;;5092951;28;20447;-70
2022/10/08 03:08:19;;;;;;;12.27;7.53;;;;;;;;;;5092356;28;20963;-71
2022/10/08 03:10:46;;;;;;;11.97;7.80;;;;;;;;;;5091232;28;20902;-70
2022/10/08 03:13:13;;;;;;;11.57;8.10;;;;;;;;;;5090933;28;20439;-70
2022/10/08 03:15:40;;;;;;;14.93;7.50;;;;;;;;;;5092642;28;20787;-70
2022/10/08 03:18:07;;;;;;;14.03;7.93;;;;;;;;;;5090814;28;20482;-71
2022/10/08 03:20:38;;;;;;;11.80;8.00;;;;;;;;;;5110601;28;20453;-70
2022/10/08 03:23:05;;;;;;;13.30;7.53;;;;;;;;;;5092110;28;21301;-70
2022/10/08 03:25:32;;;;;;;12.47;7.87;;;;;;;;;;5107733;27;20973;-70
2022/10/08 03:27:58;;;;;;;14.43;7.50;;;;;;;;;;5089902;28;20438;-70
2022/10/08 03:30:25;;;;;;;11.40;7.57;;;;;;;;;;5108170;28;20312;-70
2022/10/08 03:32:52;;;;;;;11.43;7.37;;;;;;;;;;5109423;28;20575;-70
2022/10/08 03:35:19;;;;;;;11.50;8.37;;;;;;;;;;5108456;28;20572;-70
2022/10/08 03:37:45;;;;;;;13.70;9.10;;;;;;;;;;5110680;28;21279;-70
2022/10/08 03:40:12;;;;;;;15.00;9.00;;;;;;;;;;5108525;28;20450;-70
2022/10/08 03:42:56;;;;;;;12.90;9.37;;;;;;;;;;5110265;28;20438;-70
2022/10/08 03:45:23;;;;;;;16.10;9.47;;;;;;;;;;5109203;27;20443;-70
2022/10/08 03:47:51;;;;;;;14.17;8.73;;;;;;;;;;5109916;28;20998;-70
2022/10/08 03:50:18;;;;;;;15.80;8.97;;;;;;;;;;5109069;27;20465;-70
2022/10/08 03:52:45;;;;;;;15.70;9.27;;;;;;;;;;5107795;28;20547;-70
2022/10/08 03:55:12;;;;;;;13.53;8.60;;;;;;;;;;5096403;28;20991;-70
2022/10/08 03:57:39;;;;;;;16.23;9.20;;;;;;;;;;5091517;28;20590;-70
2022/10/08 04:00:06;;;;;;;14.03;7.73;;;;;;;;;;5094044;28;20453;-70
2022/10/08 04:02:33;;;;;;;13.50;8.37;;;;;;;;;;5109793;28;20262;-70
2022/10/08 04:05:00;;;;;;;14.40;9.03;;;;;;;;;;5108075;28;20442;-70
2022/10/08 04:07:27;;;;;;;11.73;8.30;;;;;;;;;;5108767;28;20188;-71
2022/10/08 04:10:11;;;;;;;14.70;8.13;;;;;;;;;;5109596;28;21025;-70
2022/10/08 04:12:38;;;;;;;11.53;7.90;;;;;;;;;;5091464;28;20446;-70
2022/10/08 04:15:22;;;;;;;13.30;8.47;;;;;;;;;;5091467;28;20204;-70
2022/10/08 04:17:49;;;;;;;14.37;8.20;;;;;;;;;;5107656;28;20478;-70
2022/10/08 04:20:15;;;;;;;10.27;7.50;;;;;;;;;;5108963;28;20188;-70
2022/10/08 04:22:42;;;;;;;12.63;7.50;;;;;;;;;;5094200;28;20644;-70
2022/10/08 04:25:09;;;;;;;14.20;8.27;;;;;;;;;;5106795;28;20204;-71
2022/10/08 04:27:36;;;;;;;15.17;8.77;;;;;;;;;;5109126;28;20783;-70
2022/10/08 04:30:03;;;;;;;14.53;8.70;;;;;;;;;;5108158;28;20199;-72
2022/10/08 04:32:30;;;;;;;12.53;8.50;;;;;;;;;;5109361;28;20475;-70
2022/10/08 04:35:15;;;;;;;11.10;8.13;;;;;;;;;;5108919;28;20442;-70
2022/10/08 04:37:41;;;;;;;12.83;9.23;;;;;;;;;;5106214;28;20486;-70
2022/10/08 04:40:08;;;;;;;12.53;8.80;;;;;;;;;;5093738;28;20490;-71
2022/10/08 04:42:35;;;;;;;15.47;8.57;;;;;;;;;;5110262;28;20419;-70
2022/10/08 04:45:02;;;;;;;14.13;8.40;;;;;;;;;;5088957;28;20592;-70
2022/10/08 04:47:28;;;;;;;14.13;8.57;;;;;;;;;;5075507;28;20594;-70
2022/10/08 04:49:55;;;;;;;16.20;8.20;;;;;;;;;;5090524;28;20586;-70
2022/10/08 04:52:22;;;;;;;13.57;8.37;;;;;;;;;;5071834;28;20691;-71
2022/10/08 04:54:49;;;;;;;12.10;7.90;;;;;;;;;;5071770;28;20174;-71
2022/10/08 04:57:16;;;;;;;13.17;8.10;;;;;;;;;;5093104;28;20696;-71
2022/10/08 04:59:42;;;;;;;14.03;7.27;;;;;;;;;;5098032;28;20200;-71
2022/10/08 05:02:29;;;;;;;13.27;7.77;;;;;;;;;;5108492;28;20199;-71
2022/10/08 05:04:56;;;;;;;13.37;8.03;;;;;;;;;;5082612;28;20220;-71
2022/10/08 05:07:23;;;;;;;11.37;7.30;;;;;;;;;;5095459;28;20177;-73
2022/10/08 05:09:50;;;;;;;16.23;7.23;;;;;;;;;;5074635;28;20189;-70
2022/10/08 05:12:34;;;;;;;11.07;6.70;;;;;;;;;;5102962;28;20539;-71
2022/10/08 05:15:01;;;;;;;11.00;6.93;;;;;;;;;;5106546;28;20189;-74
2022/10/08 05:17:28;;;;;;;9.17;6.37;;;;;;;;;;5107934;28;20223;-71
2022/10/08 05:19:54;;;;;;;11.90;6.40;;;;;;;;;;5110689;28;20249;-73
2022/10/08 05:22:21;;;;;;;14.13;6.43;;;;;;;;;;5104500;28;20187;-72
2022/10/08 05:24:48;;;;;;;12.47;6.23;;;;;;;;;;5071005;28;20209;-73
2022/10/08 05:27:14;;;;;;;11.23;6.10;;;;;;;;;;5112983;28;20196;-72
2022/10/08 05:29:41;;;;;;;14.37;6.23;;;;;;;;;;5110603;28;20188;-69
2022/10/08 05:32:08;;;;;;;10.07;5.83;;;;;;;;;;5107921;28;20254;-72
2022/10/08 05:34:35;;;;;;;9.67;5.63;;;;;;;;;;5105043;28;20226;-71
2022/10/08 05:37:01;;;;;;;8.93;6.07;;;;;;;;;;5111878;28;20281;-69
2022/10/08 05:39:28;;;;;;;9.37;5.70;;;;;;;;;;5101321;28;20286;-71
2022/10/08 05:41:55;;;;;;;10.50;5.90;;;;;;;;;;5091396;28;20706;-73
2022/10/08 05:44:22;;;;;;;10.50;5.63;;;;;;;;;;5106025;28;20193;-73
2022/10/08 05:46:48;;;;;;;8.43;5.40;;;;;;;;;;5091920;28;20202;-70
2022/10/08 05:49:19;;;;;;;9.20;5.93;;;;;;;;;;5109891;28;20200;-72
2022/10/08 05:51:46;;;;;;;8.70;5.07;;;;;;;;;;5078326;28;20683;-73
2022/10/08 05:54:13;;;;;;;9.13;5.30;;;;;;;;;;5091274;28;20606;-72
2022/10/08 05:56:40;;;;;;;11.13;5.70;;;;;;;;;;5107169;28;20562;-73
2022/10/08 05:59:25;;;;;;;10.90;5.50;;;;;;;;;;5110639;27;20179;-72
2022/10/08 06:01:52;;;;;;;9.80;6.07;;;;;;;;;;5081269;28;20192;-72
2022/10/08 06:04:18;;;;;;;11.47;7.03;;;;;;;;;;5091020;28;20189;-72
2022/10/08 06:06:45;;;;;;;9.53;6.33;;;;;;;;;;5094843;28;20675;-72
2022/10/08 06:09:13;;;;;;;8.50;5.53;;;;;;;;;;5077133;28;20194;-72
2022/10/08 06:11:41;;;;;;;12.73;5.93;;;;;;;;;;5104395;27;20181;-73
2022/10/08 06:14:11;;;;;;;12.27;5.40;;;;;;;;;;5082968;28;20712;-72
2022/10/08 06:16:38;;;;;;;8.90;4.87;;;;;;;;;;5113416;27;20196;-73
2022/10/08 06:19:05;;;;;;;7.80;5.27;;;;;;;;;;5080800;28;20190;-72
2022/10/08 06:21:32;;;;;;;9.97;5.37;;;;;;;;;;5104299;28;20597;-72
2022/10/08 06:24:00;;;;;;;11.83;5.53;;;;;;;;;;5094876;28;20185;-73
2022/10/08 06:26:44;;;;;;;8.77;5.20;;;;;;;;;;5096019;28;20520;-72
2022/10/08 06:29:14;;;;;;;10.47;5.50;;;;;;;;;;5104291;28;20276;-72
2022/10/08 06:31:58;;;;;;;11.07;5.53;;;;;;;;;;5091956;28;20173;-72
2022/10/08 06:34:25;;;;;;;12.27;5.40;;;;;;;;;;5097770;28;20185;-72
2022/10/08 06:36:52;;;;;;;9.03;5.57;;;;;;;;;;5098711;28;20291;-72
2022/10/08 06:39:19;;;;;;;9.90;6.03;;;;;;;;;;5097665;28;20226;-71
2022/10/08 06:41:46;;;;;;;11.27;5.53;;;;;;;;;;5116216;27;20194;-68
2022/10/08 06:44:13;;;;;;;9.37;5.17;;;;;;;;;;5114122;27;20217;-69
2022/10/08 06:46:41;;;;;;;11.70;5.80;;;;;;;;;;5070638;27;20197;-69
2022/10/08 06:49:08;;;;;;;9.83;6.00;;;;;;;;;;5091527;28;20189;-69
2022/10/08 06:51:36;;;;;;;9.23;5.70;;;;;;;;;;5105090;28;20235;-69
2022/10/08 06:54:03;;;;;;;9.57;6.50;;;;;;;;;;5108491;27;20188;-69
2022/10/08 06:56:36;;;;;;;12.17;6.57;;;;;;;;;;5095569;28;20186;-69
2022/10/08 06:59:03;;;;;;;11.23;6.47;;;;;;;;;;5106507;28;20212;-68
2022/10/08 07:01:30;;;;;;;11.70;6.70;;;;;;;;;;5098231;27;20237;-67
2022/10/08 07:03:59;;;;;;;10.03;6.13;;;;;;;;;;5117302;27;20189;-69
2022/10/08 07:06:44;;;;;;;11.33;6.17;;;;;;;;;;5121260;27;20177;-71
2022/10/08 07:09:12;;;;;;;12.67;6.27;;;;;;;;;;5123731;27;20759;-67
2022/10/08 07:11:39;;;;;;;11.97;6.20;;;;;;;;;;5079987;28;20192;-67
2022/10/08 07:14:05;;;;;;;9.30;5.90;;;;;;;;;;5111315;28;20312;-68
2022/10/08 07:16:32;;;;;;;13.43;6.97;;;;;;;;;;5105126;28;20652;-67
2022/10/08 07:18:59;;;;;;;14.17;7.00;;;;;;;;;;5111892;28;20298;-65
2022/10/08 07:21:27;;;;;;;13.13;7.10;;;;;;;;;;5111359;28;20188;-67
2022/10/08 07:23:54;;;;;;;11.00;6.33;;;;;;;;;;5106235;28;20199;-67
2022/10/08 07:26:21;;;;;;;13.43;6.50;;;;;;;;;;5109268;28;20196;-67
2022/10/08 07:28:52;;;;;;;11.70;6.43;;;;;;;;;;5107258;28;20205;-68
2022/10/08 07:31:20;;;;;;;9.27;6.40;;;;;;;;;;5108121;28;20189;-71
2022/10/08 07:33:47;;;;;;;12.03;6.70;;;;;;;;;;5111602;28;20188;-72
2022/10/08 07:36:15;;;;;;;12.23;7.30;;;;;;;;;;5111141;28;20243;-71
2022/10/08 07:38:42;;;;;;;11.93;6.93;;;;;;;;;;5111667;28;20213;-71
2022/10/08 07:41:09;;;;;;;11.23;6.33;;;;;;;;;;5111284;28;20210;-71
2022/10/08 07:43:36;;;;;;;10.27;6.30;;;;;;;;;;5111131;28;20173;-70
2022/10/08 07:46:04;;;;;;;12.17;6.07;;;;;;;;;;5093296;28;20196;-71
2022/10/08 07:48:49;;;;;;;9.17;6.03;;;;;;;;;;5061349;28;20176;-71
2022/10/08 07:51:17;;;;;;;11.77;6.37;;;;;;;;;;5090702;28;20189;-70
2022/10/08 07:53:43;;;;;;;10.80;5.97;;;;;;;;;;5090983;28;20189;-69
2022/10/08 07:56:12;;;;;;;8.03;5.50;;;;;;;;;;5090688;28;20188;-70
2022/10/08 07:58:39;;;;;;;8.93;5.43;;;;;;;;;;5072850;28;20286;-70
2022/10/08 08:01:07;;;;;;;8.93;5.50;;;;;;;;;;5072237;28;20190;-71
2022/10/08 08:03:34;;;;;;;12.33;5.80;;;;;;;;;;5085508;28;20556;-71
2022/10/08 08:06:04;;;;;;;10.57;5.47;;;;;;;;;;5090709;28;20545;-70
2022/10/08 08:08:33;;;;;;;9.17;5.97;;;;;;;;;;5086891;28;20664;-70
2022/10/08 08:10:59;;;;;;;14.10;6.30;;;;;;;;;;5072534;28;20186;-71
2022/10/08 08:13:29;;;;;;;9.40;5.57;;;;;;;;;;5090266;28;20200;-71
2022/10/08 08:16:05;;;;;;;9.30;5.63;;;;;;;;;;5090385;28;20201;-70
2022/10/08 08:18:33;;;;;;;11.03;5.43;;;;;;;;;;5090400;28;20266;-70
2022/10/08 08:21:21;;;;;;;10.07;5.37;;;;;;;;;;5074838;28;20161;-70
2022/10/08 08:23:49;;;;;;;12.57;5.67;;;;;;;;;;5090581;28;20235;-71
2022/10/08 08:26:16;;;;;;;10.33;5.70;;;;;;;;;;5072434;28;20186;-70
2022/10/08 08:28:43;;;;;;;9.73;5.37;;;;;;;;;;5088747;28;20243;-71
2022/10/08 08:31:09;;;;;;;10.20;5.27;;;;;;;;;;5088543;28;20237;-69
2022/10/08 08:33:36;;;;;;;17.10;10.33;;;;;;;;;;5090332;28;20190;-70
2022/10/08 08:36:03;;;;;;;9.53;5.23;;;;;;;;;;5099532;28;20193;-71
2022/10/08 08:38:30;;;;;;;9.10;4.90;;;;;;;;;;5092090;28;20572;-70
2022/10/08 08:41:26;;;;;;;10.37;5.20;;;;;;;;;;5110370;28;20641;-71
2022/10/08 08:43:59;;;;;;;8.63;5.03;;;;;;;;;;5110732;28;20203;-70
2022/10/08 08:46:27;;;;;;;11.43;5.23;;;;;;;;;;5091883;28;20172;-71
2022/10/08 08:48:54;;;;;;;8.10;4.80;;;;;;;;;;5092415;28;20180;-70
2022/10/08 08:51:21;;;;;;;8.13;4.93;;;;;;;;;;5110122;28;20197;-71
2022/10/08 08:53:47;;;;;;;10.10;5.60;;;;;;;;;;5097468;28;20197;-71
2022/10/08 08:56:14;;;;;;;10.83;5.20;;;;;;;;;;5071947;28;20216;-71
2022/10/08 08:58:43;;;;;;;8.67;4.90;;;;;;;;;;5071925;28;20201;-71
2022/10/08 09:01:22;;;;;;;7.77;4.60;;;;;;;;;;5071685;28;20595;-71
2022/10/08 09:03:49;;;;;;;8.97;5.07;;;;;;;;;;5071969;28;20276;-70
2022/10/08 09:06:17;;;;;;;9.93;5.23;;;;;;;;;;5089642;28;20185;-70
2022/10/08 09:09:03;;;;;;;6.60;4.13;;;;;;;;;;5076440;28;20188;-71
2022/10/08 09:11:29;;;;;;;8.10;4.53;;;;;;;;;;5101379;28;20184;-71
2022/10/08 09:13:56;;;;;;;11.47;4.93;;;;;;;;;;5090556;28;20541;-71
2022/10/08 09:16:25;;;;;;;8.20;4.63;;;;;;;;;;5089469;28;20177;-70
2022/10/08 09:19:09;;;;;;;9.37;4.63;;;;;;;;;;5071330;28;20217;-70
2022/10/08 09:21:36;;;;;;;8.20;4.53;;;;;;;;;;5089431;28;20204;-71
2022/10/08 09:24:20;;;;;;;8.87;4.53;;;;;;;;;;5089544;28;20231;-72
2022/10/08 09:26:47;;;;;;;7.03;4.13;;;;;;;;;;5071630;28;20198;-71
2022/10/08 09:29:32;;;;;;;8.37;4.60;;;;;;;;;;5089755;28;20189;-72
2022/10/08 09:31:59;;;;;;;10.47;4.80;;;;;;;;;;5071547;28;20189;-71
2022/10/08 09:34:26;;;;;;;8.77;4.60;;;;;;;;;;5071218;28;20197;-72
2022/10/08 09:36:53;;;;;;;7.23;4.00;;;;;;;;;;5077154;28;20232;-72
2022/10/08 09:39:24;;;;;;;5.97;4.13;;;;;;;;;;5091481;28;20311;-72
2022/10/08 09:42:12;;;;;;;8.17;3.67;;;;;;;;;;5094302;28;20211;-72
2022/10/08 09:44:51;;;;;;;8.07;4.30;;;;;;;;;;5109332;28;20197;-73
2022/10/08 09:47:36;;;;;;;8.30;4.43;;;;;;;;;;5109855;28;20799;-72
2022/10/08 09:50:14;;;;;;;8.83;4.10;;;;;;;;;;5108276;28;20189;-72
2022/10/08 09:52:59;;;;;;;9.90;4.50;;;;;;;;;;5094160;28;20658;-72
2022/10/08 09:55:27;;;;;;;8.33;3.87;;;;;;;;;;5109344;28;20258;-72
2022/10/08 09:57:55;;;;;;;8.27;4.17;;;;;;;;;;5109260;28;20266;-72
2022/10/08 10:00:23;;;;;;;8.63;3.83;;;;;;;;;;5090967;28;20177;-73
2022/10/08 10:02:54;;;;;;;8.93;4.27;;;;;;;;;;5091638;28;20250;-72
2022/10/08 10:05:38;;;;;;;9.43;4.20;;;;;;;;;;5093392;28;20264;-73
2022/10/08 10:08:05;;;;;;;10.77;5.10;;;;;;;;;;5113374;28;20259;-72
2022/10/08 10:10:36;;;;;;;7.20;4.67;;;;;;;;;;5113111;28;20195;-73
2022/10/08 10:13:09;;;;;;;9.63;4.43;;;;;;;;;;5112060;28;20723;-72
2022/10/08 10:15:38;;;;;;;11.37;4.50;;;;;;;;;;5113278;28;20185;-72
2022/10/08 10:18:10;;;;;;;7.73;3.97;;;;;;;;;;5105032;28;21010;-73
2022/10/08 10:20:58;;;;;;;9.30;4.23;;;;;;;;;;5097786;28;20563;-71
2022/10/08 10:23:39;;;;;;;8.63;4.10;;;;;;;;;;5094911;28;20207;-71
2022/10/08 10:26:08;;;;;;;8.03;4.20;;;;;;;;;;5094942;28;20231;-71
2022/10/08 10:28:39;;;;;;;15.10;4.10;;;;;;;;;;5094820;28;20283;-71
2022/10/08 10:31:10;;;;;;;6.77;3.77;;;;;;;;;;5094820;28;20521;-71
2022/10/08 10:34:00;;;;;;;8.03;3.47;;;;;;;;;;5094708;28;20196;-71
2022/10/08 10:36:34;;;;;;;8.23;4.03;;;;;;;;;;5056338;28;20229;-71
2022/10/08 10:39:16;;;;;;;10.90;3.83;;;;;;;;;;5112714;28;20216;-71
2022/10/08 10:41:52;;;;;;;8.43;3.60;;;;;;;;;;5094811;28;20185;-71
2022/10/08 10:44:19;;;;;;;7.63;3.50;;;;;;;;;;5112922;28;20214;-71
2022/10/08 10:47:03;;;;;;;8.30;4.27;;;;;;;;;;5097231;28;20185;-71
2022/10/08 10:49:37;;;;;;;10.10;4.03;;;;;;;;;;5112485;28;20185;-71
2022/10/08 10:52:35;;;;;;;10.97;4.07;;;;;;;;;;5084220;28;20181;-71
2022/10/08 10:55:05;;;;;;;9.73;5.20;;;;;;;;;;5092258;28;20189;-71
2022/10/08 10:57:50;;;;;;;16.47;8.03;;;;;;;;;;5092166;28;20547;-71
2022/10/08 11:00:32;;;;;;;13.10;6.57;;;;;;;;;;5092056;28;20238;-69
2022/10/08 11:03:06;;;;;;;10.10;4.53;;;;;;;;;;5074383;28;20246;-71
2022/10/08 11:05:34;;;;;;;8.73;3.50;;;;;;;;;;5074343;28;20184;-71
2022/10/08 11:08:16;;;;;;;11.17;5.30;;;;;;;;;;5079665;28;20185;-71
2022/10/08 11:10:52;;;;;;;8.70;4.10;;;;;;;;;;5077125;28;20185;-72
2022/10/08 11:13:37;;;;;;;5.63;3.33;;;;;;;;;;5112122;28;20211;-70
2022/10/08 11:16:22;;;;;;;8.10;2.77;;;;;;;;;;5111312;28;20200;-72
2022/10/08 11:19:17;;;;;;;7.03;3.13;;;;;;;;;;5111637;28;20679;-72
2022/10/08 11:21:44;;;;;;;9.10;3.33;;;;;;;;;;5093777;28;20707;-72
2022/10/08 11:24:37;;;;;;;5.53;2.57;;;;;;;;;;5111771;28;20177;-72
2022/10/08 11:27:16;;;;;;;6.50;3.10;;;;;;;;;;5107120;28;20205;-71
2022/10/08 11:29:45;;;;;;;7.20;2.73;;;;;;;;;;5110956;28;20184;-72
2022/10/08 11:32:12;;;;;;;6.03;3.20;;;;;;;;;;5094112;28;20185;-72
2022/10/08 11:34:41;;;;;;;8.23;2.60;;;;;;;;;;5110635;28;20215;-72
2022/10/08 11:37:11;;;;;;;9.60;3.13;;;;;;;;;;5088510;28;20232;-72
2022/10/08 11:39:44;;;;;;;5.43;2.40;;;;;;;;;;5093649;28;20691;-72
2022/10/08 11:42:16;;;;;;;5.07;3.13;;;;;;;;;;5107848;28;20623;-72
2022/10/08 11:44:44;;;;;;;6.13;3.00;;;;;;;;;;5073756;28;20190;-71
2022/10/08 11:47:45;;;;;;;10.37;3.13;;;;;;;;;;5073139;28;20192;-72
2022/10/08 11:50:24;;;;;;;5.93;2.70;;;;;;;;;;5040647;28;20204;-71
2022/10/08 11:52:51;;;;;;;4.43;2.50;;;;;;;;;;5091022;28;20318;-72
2022/10/08 11:55:19;;;;;;;7.37;3.40;;;;;;;;;;5073182;28;20235;-71
2022/10/08 11:57:53;;;;;;;7.73;2.67;;;;;;;;;;5072790;28;20209;-70
2022/10/08 12:00:40;;;;;;;7.93;2.40;;;;;;;;;;5094279;28;20204;-71
2022/10/08 12:03:17;;;;;;;5.07;2.40;;;;;;;;;;5092973;28;20204;-70
2022/10/08 12:05:44;;;;;;;6.30;2.43;;;;;;;;;;5111380;28;20262;-70
2022/10/08 12:08:34;;;;;;;5.73;2.70;;;;;;;;;;5093619;28;20219;-71
2022/10/08 12:11:20;;;;;;;9.17;2.67;;;;;;;;;;5111165;28;20191;-70
2022/10/08 12:14:08;;;;;;;6.60;2.67;;;;;;;;;;5110899;28;20199;-71
2022/10/08 12:16:47;;;;;;;7.37;2.60;;;;;;;;;;5110278;28;20214;-70
2022/10/08 12:22:01;;;;;;;4.70;2.40;;;;;;;;;;5090453;28;20185;-69
2022/10/08 12:24:36;;;;;;;7.90;2.13;;;;;;;;;;5090262;28;20264;-71
2022/10/08 12:27:15;;;;;;;4.07;2.30;;;;;;;;;;5090239;28;20189;-69
2022/10/08 12:29:56;;;;;;;5.20;2.50;;;;;;;;;;5090219;28;20197;-70
2022/10/08 12:32:23;;;;;;;5.43;2.03;;;;;;;;;;5072143;28;20193;-71
2022/10/08 12:34:50;;;;;;;7.47;2.40;;;;;;;;;;5075386;28;20689;-71
2022/10/08 12:37:36;;;;;;;7.13;2.27;;;;;;;;;;5110395;28;20232;-70
2022/10/08 12:40:09;;;;;;;8.23;2.30;;;;;;;;;;5110138;28;20215;-70
2022/10/08 12:42:36;;;;;;;3.40;2.10;;;;;;;;;;5092514;28;20594;-71
2022/10/08 12:45:32;;;;;;;4.70;2.10;;;;;;;;;;5092425;28;20185;-71
2022/10/08 12:48:03;;;;;;;6.53;2.40;;;;;;;;;;5055737;28;20202;-71
2022/10/08 12:50:37;;;;;;;10.50;2.40;;;;;;;;;;5091106;28;20203;-70
2022/10/08 12:53:05;;;;;;;4.87;2.37;;;;;;;;;;5088462;28;20334;-69
2022/10/08 12:55:33;;;;;;;5.97;2.20;;;;;;;;;;5072127;28;20181;-70
2022/10/08 12:58:03;;;;;;;8.00;2.97;;;;;;;;;;5072502;28;20185;-70
2022/10/08 13:00:31;;;;;;;8.20;2.53;;;;;;;;;;5089727;28;20215;-70
2022/10/08 13:03:03;;;;;;;6.93;2.77;;;;;;;;;;5072252;28;20193;-70
2022/10/08 13:05:30;;;;;;;6.70;2.87;;;;;;;;;;5089885;28;20532;-70
2022/10/08 13:07:57;;;;;;;7.03;2.60;;;;;;;;;;5100621;28;20681;-69
2022/10/08 13:10:25;;;;;;;8.60;2.83;;;;;;;;;;5109690;28;20537;-69
2022/10/08 13:12:58;;;;;;;8.40;2.40;;;;;;;;;;5092003;28;20730;-70
2022/10/08 13:15:25;;;;;;;5.90;2.53;;;;;;;;;;5109769;28;20896;-69
2022/10/08 13:17:55;;;;;;;5.80;2.20;;;;;;;;;;5110365;28;20192;-69
2022/10/08 13:20:22;;;;;;;4.83;2.33;;;;;;;;;;5109824;28;20279;-69
2022/10/08 13:22:49;;;;;;;6.63;2.60;;;;;;;;;;5091002;28;20196;-70
2022/10/08 13:25:31;;;;;;;5.73;3.07;;;;;;;;;;5091619;28;20197;-68
2022/10/08 13:28:14;;;;;;;6.77;2.47;;;;;;;;;;5110128;28;20210;-69
2022/10/08 13:30:43;;;;;;;5.37;2.67;;;;;;;;;;5092031;28;20196;-68
2022/10/08 13:33:11;;;;;;;10.17;2.80;;;;;;;;;;5109726;28;20184;-69
2022/10/08 13:35:38;;;;;;;5.70;2.80;;;;;;;;;;5108702;28;20259;-69
2022/10/08 13:38:05;;;;;;;7.67;3.00;;;;;;;;;;5094895;28;20216;-69
2022/10/08 13:40:32;;;;;;;7.57;2.80;;;;;;;;;;5093390;28;20227;-69
2022/10/08 13:42:59;;;;;;;6.60;2.90;;;;;;;;;;5112792;28;20397;-68
2022/10/08 13:45:35;;;;;;;6.43;2.60;;;;;;;;;;5113699;28;20268;-68
2022/10/08 13:48:02;;;;;;;6.20;2.70;;;;;;;;;;5113947;28;20299;-68
2022/10/08 13:50:29;;;;;;;7.70;2.97;;;;;;;;;;5113784;28;20214;-68
2022/10/08 13:52:56;;;;;;;6.50;2.60;;;;;;;;;;5113609;28;20188;-68
2022/10/08 13:55:42;;;;;;;11.50;3.27;;;;;;;;;;5099625;28;20656;-68
2022/10/08 13:58:09;;;;;;;8.37;2.70;;;;;;;;;;5093096;28;20522;-68
2022/10/08 14:00:38;;;;;;;5.97;2.70;;;;;;;;;;5075153;28;20743;-68
2022/10/08 14:03:05;;;;;;;7.27;2.90;;;;;;;;;;5092805;28;20201;-68
2022/10/08 14:05:34;;;;;;;7.77;2.83;;;;;;;;;;5093447;28;20240;-68
2022/10/08 14:08:19;;;;;;;6.17;2.50;;;;;;;;;;5093201;28;20281;-68
2022/10/08 14:10:45;;;;;;;7.60;2.87;;;;;;;;;;5074806;28;20196;-69
2022/10/08 14:13:30;;;;;;;5.70;2.77;;;;;;;;;;5097505;28;20177;-68
2022/10/08 14:15:57;;;;;;;9.87;2.97;;;;;;;;;;5113299;28;20191;-68
2022/10/08 14:18:41;;;;;;;6.10;3.00;;;;;;;;;;5113368;28;20157;-68
2022/10/08 14:21:10;;;;;;;5.67;2.30;;;;;;;;;;5112923;28;20656;-67
2022/10/08 14:23:55;;;;;;;5.87;2.40;;;;;;;;;;5113335;28;20164;-67
2022/10/08 14:26:21;;;;;;;5.87;1.97;;;;;;;;;;5113027;28;20660;-66
2022/10/08 14:29:06;;;;;;;9.43;2.60;;;;;;;;;;5108464;28;20218;-67
2022/10/08 14:31:33;;;;;;;6.73;2.20;;;;;;;;;;5074718;28;20628;-67
2022/10/08 14:34:00;;;;;;;7.33;2.53;;;;;;;;;;5074788;28;20212;-67
2022/10/08 14:36:34;;;;;;;9.00;2.20;;;;;;;;;;5093885;28;20305;-68
2022/10/08 14:39:18;;;;;;;7.93;2.53;;;;;;;;;;5113076;28;20291;-68
2022/10/08 14:41:45;;;;;;;14.83;4.17;;;;;;;;;;5112759;28;20193;-67
2022/10/08 14:44:15;;;;;;;16.00;4.13;;;;;;;;;;5112061;28;20592;-68
2022/10/08 14:46:42;;;;;;;6.90;2.60;;;;;;;;;;5113037;28;20189;-68
2022/10/08 14:49:09;;;;;;;16.23;6.37;;;;;;;;;;5112538;28;20547;-68
2022/10/08 14:51:39;;;;;;;16.87;6.60;;;;;;;;;;5109709;28;20192;-68
2022/10/08 14:54:05;;;;;;;16.93;6.93;;;;;;;;;;5094122;28;20971;-68
2022/10/08 14:56:42;;;;;;;13.30;5.50;;;;;;;;;;5111774;28;20241;-68
2022/10/08 14:59:10;;;;;;;8.43;4.20;;;;;;;;;;5094833;28;20675;-67
2022/10/08 15:01:36;;;;;;;11.87;4.30;;;;;;;;;;5093352;28;20189;-68
2022/10/08 15:04:04;;;;;;;9.13;4.00;;;;;;;;;;5094071;28;20185;-68
2022/10/08 15:06:31;;;;;;;9.07;4.40;;;;;;;;;;5112128;28;20196;-68
2022/10/08 15:08:58;;;;;;;11.50;4.80;;;;;;;;;;5094666;28;20204;-68
2022/10/08 15:11:24;;;;;;;14.33;4.43;;;;;;;;;;5092638;28;20189;-69